NCAR-RAP Real-Time Weather Data

Output produced by METARs form (24 April 2018  16:19 UTC)
found at http://weather.rap.ucar.edu/surface/
 
RJDT 241100Z 02012G24KT 330V070 9999 -SHRA FEW008 BKN010 12/10 Q1008
RJDT 241000Z 02011G24KT 320V070 9999 FEW008 BKN010 12/11 Q1008
RJDT 240931Z 02014G25KT 330V070 9999 FEW008 BKN010 13/11 Q1007 RMK 1ST008 7CU010 A2976
RJDT 240900Z 02014G28KT 340V070 9999 FEW007 BKN009 13/11 Q1007
RJDT 240839Z 01013G25KT 320V070 9999 FEW008 BKN009 13/11 Q1007 RMK 1ST008 7ST009 A2974
RJDT 240800Z 01012KT 330V070 9999 FEW009 BKN010 13/11 Q1006
RJDT 240700Z 02012G26KT 330V050 9999 FEW009 BKN010 13/11 Q1006
RJDT 240600Z 01015KT 330V040 9999 FEW010 BKN012 14/12 Q1006
RJDT 240500Z 01012KT 330V040 9999 FEW008 BKN010 14/12 Q1006
RJDT 240400Z 02012KT 340V050 9999 FEW008 BKN010 14/12 Q1007
RJDT 240300Z 02009G19KT 340V050 9999 FEW005 SCT008 BKN010 13/13 Q1007
RJDT 240200Z 36012G28KT 310V050 9999 -SHRA FEW005 SCT007 BKN009 13/12 Q1007
RJDT 240115Z 02013G24KT 350V060 8000 -SHRA FEW004 SCT006 BKN008 13/13 Q1007 RMK 1ST004 3ST006 6ST008 A2974
RJDT 240100Z 02012KT 330V060 6000 SHRA FEW002 SCT004 BKN006 13/13 Q1007
RJDT 240010Z 01012KT 320V050 4000 SHRA BR FEW001 SCT003 BKN004 13/13 Q1007 RMK 1ST001 3ST003 6ST004 A2975
RJDT 240000Z 02010G20KT 340V060 5000 SHRA BR FEW001 SCT003 BKN004 13/13 Q1007
RJDT 232328Z 03013KT 350V080 6000 SHRA FEW002 SCT003 BKN005 13/13 Q1006 RMK 1ST002 3ST003 7ST005 A2973
RJDT 232300Z 03013KT 350V070 7000 -SHRA FEW002 SCT004 BKN005 13/13 Q1007
RJDT 232230Z 03011G26KT 340V060 5000 SHRA BR FEW001 SCT003 BKN005 13/13 Q1006
RJDT 232209Z 03014KT 5000 SHRA BR FEW001 SCT003 BKN005 13/13 Q1007 RMK 1ST001 4ST003 7ST005 A2974
RJDT 231100Z 06007KT 350V090 3000 SHRA BR SCT002 BKN003 15/15 Q1012
RJDT 231037Z 06010KT 010V090 3000 SHRA BR FEW002 BKN003 15/15 Q1012 RMK 2ST002 6ST003 A2989
RJDT 231000Z 05007KT 360V090 6000 -SHRA FEW002 BKN004 15/14 Q1012
RJDT 230939Z 04011KT 020V090 6000 -SHRA FEW002 SCT004 BKN010 15/14 Q1012 RMK 2ST002 4ST004 6CU010 A2989
RJDT 230927Z 04011KT 3500 SHRA BR FEW002 SCT004 BKN010 15/14 Q1012 RMK 2ST002 4ST004 6CU010 A2990
RJDT 230900Z 05010KT 010V090 7000 -SHRA FEW002 BKN003 14/14 Q1012
RJDT 230800Z 07007KT 010V120 5000 SHRA BR FEW001 BKN003 14/14 Q1013
RJDT 230737Z 03007KT 360V070 6000 -SHRA FEW001 BKN003 14/14 Q1013 RMK 1ST001 6ST003 A2992
RJDT 230700Z 05007KT 010V110 3000 SHRA BR FEW001 SCT002 BKN003 14/14 Q1013
RJDT 230622Z 05008KT 010V100 3000 -SHRA BR FEW000 SCT002 BKN003 14/14 Q1013 RMK 1ST000 3ST002 7ST003 A2994
RJDT 230605Z 04007KT 350V090 2500 SHRA BR FEW000 SCT002 BKN003 14/14 Q1014 RMK 1ST000 3ST002 7ST003 A2995
RJDT 230600Z 04006KT 350V090 2500 -SHRA BR FEW000 SCT002 BKN003 14/14 Q1014
RJDT 230534Z 04008KT 010V100 2500 -SHRA BR FEW000 SCT002 BKN003 14/14 Q1014 RMK 1ST000 4ST002 6ST003 A2995
RJDT 230512Z 04009KT 1800 SHRA BR FEW000 SCT002 BKN003 14/14 Q1014 RMK 1ST000 4ST002 6ST003 A2997
RJDT 230500Z 05008KT 010V090 2000 -SHRA BR FEW000 SCT002 BKN003 14/14 Q1015
RJDT 230424Z 05007KT 010V100 1200 -SHRA BR FEW000 BKN002 14/14 Q1015 RMK 1ST000 7ST002 A2998
RJDT 230400Z 04007KT 350V100 1400 -SHRA BR FEW000 BKN003 14/14 Q1015
RJDT 230326Z 07010KT 020V100 1400 SHRA BR FEW000 BKN003 14/14 Q1015 RMK 1ST000 7ST003 A3000
RJDT 230318Z 06009KT 020V090 1600 -SHRA BR FEW000 BKN003 14/14 Q1016 RMK 1ST000 7ST003 A3000
RJDT 230300Z 06008KT 020V100 2200 -SHRA BR FEW001 BKN003 14/14 Q1016
RJDT 230221Z 06008KT 010V090 2500 -SHRA BR FEW001 BKN003 14/14 Q1016 RMK 1ST001 7ST003 A3003
RJDT 230200Z 05009KT 020V090 3000 -SHRA BR FEW002 SCT003 BKN004 14/13 Q1017
RJDT 230100Z 06008KT 360V110 3500 BR FEW002 BKN004 BKN005 14/13 Q1017
RJDT 230000Z 05009KT 010V110 3500 -SHRA BR FEW002 BKN004 BKN005 14/13 Q1017
RJDT 222321Z 07010KT 020V100 3000 -SHRA BR FEW002 SCT004 BKN005 13/13 Q1017 RMK 1ST002 4ST004 5ST005 A3005
RJDT 222300Z 06008G18KT 340V100 3000 -SHRA BR FEW003 SCT005 BKN007 13/13 Q1017
RJDT 222230Z 05005KT 350V110 5000 -SHRA BR FEW004 SCT006 BKN009 13/13 Q1018
RJDT 222204Z 06007KT 010V090 3500 -SHRA BR FEW003 SCT007 BKN009 13/12 Q1018 RMK 1ST003 3ST007 6ST009 A3006
RJDT 221100Z 03011KT 350V060 9999 FEW008 SCT010 BKN/// 14/12 Q1018
RJDT 221000Z 01010KT 340V050 9999 FEW008 SCT010 BKN/// 14/12 Q1018
RJDT 220900Z 03011G23KT 320V080 9999 FEW007 SCT009 15/13 Q1018
RJDT 220800Z 04012KT 360V080 9000 SCT007 SCT/// 16/14 Q1018
RJDT 220700Z 14007KT 120V190 9999 FEW035 BKN/// 21/16 Q1017
RJDT 220600Z 14005KT 110V190 9999 FEW035 BKN/// 21/16 Q1018
RJDT 220500Z 13007KT 110V170 9999 FEW035 SCT/// 21/16 Q1018